createdAt,value
2019-03-20T00:00:41.016Z,100012.54
2019-03-20T00:01:49.001Z,100020.64
2019-03-20T00:02:56.991Z,100017.34
2019-03-20T00:04:05.571Z,100019.09
2019-03-20T00:05:13.967Z,100022.92
2019-03-20T00:06:22.201Z,100017.61
2019-03-20T00:07:30.186Z,100024.17
2019-03-20T00:08:38.089Z,100022.86
2019-03-20T00:09:46.233Z,100022.69
2019-03-20T00:10:54.480Z,100022.86
2019-03-20T00:12:02.574Z,100028.97
2019-03-20T00:13:10.837Z,100027.09
2019-03-20T00:14:18.950Z,100028.00
2019-03-20T00:15:26.829Z,100025.54
2019-03-20T00:16:34.938Z,100027.81
2019-03-20T00:17:42.980Z,100029.19
2019-03-20T00:18:50.977Z,100024.06
2019-03-20T00:19:58.999Z,100026.66
2019-03-20T00:21:07.053Z,100030.48
2019-03-20T00:22:15.033Z,100023.73
2019-03-20T00:23:23.148Z,100033.27
2019-03-20T00:24:31.121Z,100026.00
2019-03-20T00:25:39.018Z,100021.61
2019-03-20T00:26:47.136Z,100027.27
2019-03-20T00:27:55.089Z,100026.59
2019-03-20T00:29:03.051Z,100024.26
2019-03-20T00:30:19.310Z,100038.31
2019-03-20T00:31:27.178Z,100036.53
2019-03-20T00:32:35.430Z,100037.00
2019-03-20T00:33:43.757Z,100036.45
2019-03-20T00:35:00.561Z,100038.42
2019-03-20T00:36:01.256Z,100027.88
2019-03-20T00:37:09.481Z,100032.05
2019-03-20T00:38:17.483Z,100033.61
2019-03-20T00:39:25.334Z,100039.61
2019-03-20T00:40:33.315Z,100042.54
2019-03-20T00:41:41.401Z,100041.56
2019-03-20T00:42:49.419Z,100041.01
2019-03-20T00:43:57.344Z,100034.39
2019-03-20T00:45:07.840Z,100038.31
2019-03-20T00:46:15.904Z,100047.30
2019-03-20T00:47:23.896Z,100047.76
2019-03-20T00:48:31.976Z,100042.84
2019-03-20T00:49:40.044Z,100044.11
2019-03-20T00:50:48.124Z,100047.89
2019-03-20T00:51:56.234Z,100046.48
2019-03-20T00:53:04.645Z,100043.80
2019-03-20T00:54:12.614Z,100046.26
2019-03-20T00:55:21.204Z,100044.03
2019-03-20T00:56:29.167Z,100051.11
2019-03-20T00:57:37.173Z,100046.26
2019-03-20T00:58:45.021Z,100045.69
2019-03-20T00:59:52.910Z,100038.67
2019-03-20T01:01:01.092Z,100042.83
2019-03-20T01:02:09.002Z,100046.02
2019-03-20T01:03:17.154Z,100042.59
2019-03-20T01:04:25.172Z,100047.89
2019-03-20T01:05:33.318Z,100049.55
2019-03-20T01:06:41.364Z,100047.34
2019-03-20T01:07:49.768Z,100045.00
2019-03-20T01:08:57.972Z,100044.89
2019-03-20T01:10:10.585Z,100046.14
2019-03-20T01:11:18.718Z,100045.69
2019-03-20T01:12:27.141Z,100053.47
2019-03-20T01:13:35.090Z,100046.83
2019-03-20T01:14:43.041Z,100046.14
2019-03-20T01:15:51.197Z,100045.91
2019-03-20T01:16:59.027Z,100051.84
2019-03-20T01:18:07.141Z,100055.78
2019-03-20T01:19:15.384Z,100049.96
2019-03-20T01:20:24.814Z,100050.75
2019-03-20T01:21:32.766Z,100052.92
2019-03-20T01:22:40.602Z,100047.17
2019-03-20T01:23:48.560Z,100050.15
2019-03-20T01:24:56.490Z,100046.20
2019-03-20T01:26:04.678Z,100055.56
2019-03-20T01:27:13.168Z,100049.89
2019-03-20T01:28:21.184Z,100049.44
2019-03-20T01:29:29.158Z,100052.18
2019-03-20T01:30:37.694Z,100045.52
2019-03-20T01:31:45.741Z,100053.69
2019-03-20T01:32:53.711Z,100053.56
2019-03-20T01:34:01.706Z,100049.58
2019-03-20T01:35:09.872Z,100049.91
2019-03-20T01:36:18.272Z,100050.79
2019-03-20T01:37:26.634Z,100046.59
2019-03-20T01:38:34.786Z,100047.28
2019-03-20T01:39:43.261Z,100045.11
2019-03-20T01:40:51.454Z,100046.12
2019-03-20T01:41:59.684Z,100051.58
2019-03-20T01:43:07.938Z,100055.02
2019-03-20T01:44:16.252Z,100054.45
2019-03-20T01:45:24.251Z,100053.59
2019-03-20T01:46:32.437Z,100060.56
2019-03-20T01:47:40.397Z,100055.16
2019-03-20T01:48:48.462Z,100061.47
2019-03-20T01:49:56.541Z,100056.12
2019-03-20T01:51:19.707Z,100060.86
2019-03-20T01:52:27.717Z,100058.19
2019-03-20T01:53:35.836Z,100061.61
2019-03-20T01:54:43.651Z,100056.26
2019-03-20T01:55:51.521Z,100056.52
2019-03-20T01:56:59.471Z,100054.40
2019-03-20T01:58:07.595Z,100053.49
2019-03-20T01:59:15.707Z,100065.31
2019-03-20T02:00:23.904Z,100059.94
2019-03-20T02:01:31.850Z,100059.15
2019-03-20T02:02:40.153Z,100062.68
2019-03-20T02:03:48.378Z,100067.19
2019-03-20T02:04:56.651Z,100072.59
2019-03-20T02:06:04.761Z,100077.48
2019-03-20T02:07:12.779Z,100079.66
2019-03-20T02:08:20.851Z,100080.05
2019-03-20T02:09:28.955Z,100074.75
2019-03-20T02:10:37.043Z,100075.61
2019-03-20T02:11:45.133Z,100080.45
2019-03-20T02:12:53.139Z,100076.27
2019-03-20T02:14:01.081Z,100077.19
2019-03-20T02:15:14.084Z,100078.55
2019-03-20T02:16:22.036Z,100080.63
2019-03-20T02:17:30.022Z,100081.94
2019-03-20T02:18:38.158Z,100084.50
2019-03-20T02:19:46.132Z,100080.11
2019-03-20T02:20:54.584Z,100083.84
2019-03-20T02:22:02.399Z,100082.84
2019-03-20T02:23:10.398Z,100080.61
2019-03-20T02:24:19.022Z,100078.34
2019-03-20T02:25:27.048Z,100082.62
2019-03-20T02:26:35.309Z,100084.75
2019-03-20T02:27:43.406Z,100083.94
2019-03-20T02:28:51.407Z,100090.05
2019-03-20T02:29:59.602Z,100084.05
2019-03-20T02:31:07.805Z,100091.52
2019-03-20T02:32:15.835Z,100097.92
2019-03-20T02:33:24.318Z,100097.16
2019-03-20T02:34:32.397Z,100095.98
2019-03-20T02:35:51.243Z,100095.53
2019-03-20T02:36:50.245Z,100098.02
2019-03-20T02:37:58.205Z,100095.25
2019-03-20T02:39:08.290Z,100098.56
2019-03-20T02:40:17.593Z,100101.05
2019-03-20T02:41:25.487Z,100099.23
2019-03-20T02:42:33.521Z,100102.20
2019-03-20T02:43:41.616Z,100100.89
2019-03-20T02:44:49.884Z,100105.79
2019-03-20T02:45:57.895Z,100101.55
2019-03-20T02:47:06.077Z,100106.98
2019-03-20T02:48:14.092Z,100102.59
2019-03-20T02:49:22.776Z,100109.25
2019-03-20T02:50:30.975Z,100102.69
2019-03-20T02:51:38.827Z,100105.77
2019-03-20T02:52:46.617Z,100110.06
2019-03-20T02:53:54.802Z,100113.08
2019-03-20T02:55:02.854Z,100107.03
2019-03-20T02:56:11.502Z,100113.38
2019-03-20T02:57:20.052Z,100113.88
2019-03-20T02:58:28.373Z,100116.72
2019-03-20T02:59:36.296Z,100112.83
2019-03-20T03:00:44.478Z,100117.58
2019-03-20T03:01:52.771Z,100112.34
2019-03-20T03:03:00.866Z,100114.64
2019-03-20T03:04:09.249Z,100111.48
2019-03-20T03:05:17.790Z,100110.44
2019-03-20T03:06:25.996Z,100113.96
2019-03-20T03:07:34.430Z,100119.75
2019-03-20T03:08:42.440Z,100113.59
2019-03-20T03:09:50.466Z,100116.72
2019-03-20T03:10:58.541Z,100116.41
2019-03-20T03:12:06.783Z,100119.75
2019-03-20T03:13:15.078Z,100118.03
2019-03-20T03:14:23.019Z,100116.95
2019-03-20T03:15:31.348Z,100121.33
2019-03-20T03:16:39.219Z,100121.33
2019-03-20T03:17:47.160Z,100118.92
2019-03-20T03:18:55.255Z,100117.80
2019-03-20T03:20:03.763Z,100116.45
2019-03-20T03:21:11.901Z,100118.97
2019-03-20T03:22:20.069Z,100119.84
2019-03-20T03:23:28.372Z,100122.33
2019-03-20T03:24:36.867Z,100126.84
2019-03-20T03:25:45.060Z,100128.10
2019-03-20T03:26:55.628Z,100128.11
2019-03-20T03:28:03.707Z,100133.80
2019-03-20T03:29:11.691Z,100131.58
2019-03-20T03:30:20.435Z,100128.92
2019-03-20T03:31:29.132Z,100132.31
2019-03-20T03:32:37.293Z,100126.13
2019-03-20T03:33:45.523Z,100129.97
2019-03-20T03:34:53.316Z,100132.09
2019-03-20T03:36:02.025Z,100133.31
2019-03-20T03:37:10.128Z,100134.63
2019-03-20T03:38:18.235Z,100144.63
2019-03-20T03:39:26.539Z,100137.70
2019-03-20T03:40:34.580Z,100142.00
2019-03-20T03:41:42.618Z,100142.90
2019-03-20T03:42:50.704Z,100138.51
2019-03-20T03:43:58.920Z,100139.82
2019-03-20T03:45:11.343Z,100141.14
2019-03-20T03:46:19.508Z,100144.20
2019-03-20T03:47:27.830Z,100143.04
2019-03-20T03:48:36.026Z,100140.86
2019-03-20T03:49:44.108Z,100138.16
2019-03-20T03:50:52.290Z,100136.76
2019-03-20T03:52:00.355Z,100138.05
2019-03-20T03:53:08.501Z,100142.40
2019-03-20T03:54:16.578Z,100138.23
2019-03-20T03:55:24.819Z,100139.72
2019-03-20T03:56:32.786Z,100136.83
2019-03-20T03:57:41.150Z,100144.21
2019-03-20T03:58:49.084Z,100147.20
2019-03-20T03:59:57.290Z,100142.28
2019-03-20T04:01:05.495Z,100150.23
2019-03-20T04:02:13.418Z,100144.91
2019-03-20T04:03:23.941Z,100144.50
2019-03-20T04:04:32.136Z,100143.97
2019-03-20T04:05:40.432Z,100142.70
2019-03-20T04:06:48.946Z,100142.20
2019-03-20T04:07:57.646Z,100143.03
2019-03-20T04:09:08.107Z,100141.23
2019-03-20T04:10:17.953Z,100142.54
2019-03-20T04:11:26.292Z,100145.16
2019-03-20T04:12:34.229Z,100148.80
2019-03-20T04:13:43.193Z,100145.31
2019-03-20T04:14:51.193Z,100146.78
2019-03-20T04:15:59.398Z,100144.63
2019-03-20T04:17:22.284Z,100144.98
2019-03-20T04:18:30.802Z,100143.39
2019-03-20T04:19:39.000Z,100147.44
2019-03-20T04:20:47.085Z,100147.22
2019-03-20T04:21:54.976Z,100154.33
2019-03-20T04:23:02.998Z,100146.06
2019-03-20T04:24:11.269Z,100152.20
2019-03-20T04:25:19.886Z,100148.61
2019-03-20T04:26:28.065Z,100158.37
2019-03-20T04:27:35.935Z,100153.92
2019-03-20T04:28:43.977Z,100150.81
2019-03-20T04:29:51.869Z,100156.09
2019-03-20T04:30:59.867Z,100154.55
2019-03-20T04:32:07.900Z,100162.41
2019-03-20T04:33:16.209Z,100156.69
2019-03-20T04:34:24.452Z,100158.18
2019-03-20T04:35:32.463Z,100153.80
2019-03-20T04:36:47.723Z,100155.90
2019-03-20T04:37:50.605Z,100155.56
2019-03-20T04:38:58.423Z,100157.20
2019-03-20T04:40:16.619Z,100159.97
2019-03-20T04:41:24.638Z,100159.97
2019-03-20T04:42:33.023Z,100162.59
2019-03-20T04:43:41.125Z,100162.11
2019-03-20T04:44:49.171Z,100163.90
2019-03-20T04:45:57.358Z,100164.80
2019-03-20T04:47:05.455Z,100172.20
2019-03-20T04:48:13.618Z,100172.27
2019-03-20T04:49:22.000Z,100170.89
2019-03-20T04:50:30.305Z,100179.95
2019-03-20T04:51:38.458Z,100179.19
2019-03-20T04:52:46.507Z,100175.71
2019-03-20T04:53:54.553Z,100178.74
2019-03-20T04:55:02.572Z,100184.80
2019-03-20T04:56:10.691Z,100174.60
2019-03-20T04:57:19.195Z,100180.77
2019-03-20T04:58:27.376Z,100184.22
2019-03-20T04:59:35.325Z,100188.45
2019-03-20T05:00:43.504Z,100181.83
2019-03-20T05:01:51.570Z,100189.98
2019-03-20T05:03:01.063Z,100189.09
2019-03-20T05:04:09.472Z,100191.22
2019-03-20T05:05:17.827Z,100193.31
2019-03-20T05:06:25.923Z,100188.90
2019-03-20T05:07:34.180Z,100192.34
2019-03-20T05:08:42.317Z,100196.64
2019-03-20T05:09:50.414Z,100192.23
2019-03-20T05:10:58.402Z,100191.32
2019-03-20T05:12:06.512Z,100196.08
2019-03-20T05:13:14.687Z,100196.45
2019-03-20T05:14:22.979Z,100199.89
2019-03-20T05:15:31.176Z,100204.68
2019-03-20T05:16:39.308Z,100213.37
2019-03-20T05:17:47.293Z,100209.36
2019-03-20T05:18:55.258Z,100204.95
2019-03-20T05:20:03.400Z,100206.63
2019-03-20T05:21:11.588Z,100211.80
2019-03-20T05:22:19.584Z,100210.03
2019-03-20T05:23:27.964Z,100216.92
2019-03-20T05:24:36.565Z,100216.88
2019-03-20T05:25:44.480Z,100221.19
2019-03-20T05:26:52.592Z,100222.00
2019-03-20T05:28:00.764Z,100225.72
2019-03-20T05:29:08.757Z,100223.47
2019-03-20T05:30:17.653Z,100230.77
2019-03-20T05:31:26.201Z,100231.06
2019-03-20T05:32:34.820Z,100232.70
2019-03-20T05:33:42.894Z,100233.03
2019-03-20T05:34:50.703Z,100226.40
2019-03-20T05:35:58.914Z,100226.86
2019-03-20T05:37:10.680Z,100235.58
2019-03-20T05:38:17.451Z,100233.00
2019-03-20T05:39:25.856Z,100230.25
2019-03-20T05:40:34.216Z,100234.05
2019-03-20T05:41:42.346Z,100233.70
2019-03-20T05:42:50.836Z,100243.89
2019-03-20T05:43:59.269Z,100242.44
2019-03-20T05:45:11.381Z,100242.85
2019-03-20T05:46:19.445Z,100238.33
2019-03-20T05:47:27.632Z,100234.80
2019-03-20T05:48:35.557Z,100236.47
2019-03-20T05:49:44.663Z,100239.59
2019-03-20T05:50:52.759Z,100243.89
2019-03-20T05:52:00.851Z,100242.09
2019-03-20T05:53:08.933Z,100246.02
2019-03-20T05:54:16.858Z,100248.14
2019-03-20T05:55:24.836Z,100248.64
2019-03-20T05:56:33.544Z,100250.41
2019-03-20T05:57:41.847Z,100251.17
2019-03-20T05:58:50.144Z,100253.35
2019-03-20T05:59:58.511Z,100251.53
2019-03-20T06:01:06.731Z,100254.16
2019-03-20T06:02:14.976Z,100257.19
2019-03-20T06:03:23.154Z,100258.95
2019-03-20T06:04:31.235Z,100260.63
2019-03-20T06:05:40.414Z,100258.31
2019-03-20T06:06:48.437Z,100261.76
2019-03-20T06:07:56.769Z,100260.85
2019-03-20T06:09:06.269Z,100268.69
2019-03-20T06:10:17.135Z,100267.32
2019-03-20T06:11:25.260Z,100270.00
2019-03-20T06:12:34.464Z,100266.45
2019-03-20T06:13:42.595Z,100269.41
2019-03-20T06:14:52.058Z,100279.40
2019-03-20T06:16:00.125Z,100273.16
2019-03-20T06:17:08.329Z,100275.27
2019-03-20T06:18:16.623Z,100271.06
2019-03-20T06:19:24.811Z,100274.59
2019-03-20T06:20:33.906Z,100271.52
2019-03-20T06:21:42.129Z,100269.34
2019-03-20T06:22:50.144Z,100276.69
2019-03-20T06:23:58.639Z,100283.66
2019-03-20T06:25:09.796Z,100282.20
2019-03-20T06:26:18.224Z,100281.73
2019-03-20T06:27:26.400Z,100281.19
2019-03-20T06:28:35.086Z,100286.80
2019-03-20T06:29:43.414Z,100284.08
2019-03-20T06:30:51.521Z,100286.09
2019-03-20T06:31:59.414Z,100285.03
2019-03-20T06:33:07.806Z,100289.29
2019-03-20T06:34:16.114Z,100293.28
2019-03-20T06:35:24.422Z,100291.52
2019-03-20T06:36:32.484Z,100291.20
2019-03-20T06:37:40.765Z,100294.64
2019-03-20T06:38:49.185Z,100298.08
2019-03-20T06:39:57.309Z,100304.00
2019-03-20T06:41:06.027Z,100296.05
2019-03-20T06:42:14.410Z,100304.59
2019-03-20T06:43:22.485Z,100302.27
2019-03-20T06:44:30.940Z,100299.03
2019-03-20T06:45:39.757Z,100305.09
2019-03-20T06:46:48.237Z,100301.48
2019-03-20T06:47:56.483Z,100300.48
2019-03-20T06:49:04.954Z,100301.23
2019-03-20T06:50:15.945Z,100305.00
2019-03-20T06:51:24.084Z,100306.67
2019-03-20T06:52:32.106Z,100305.24
2019-03-20T06:53:40.631Z,100311.77
2019-03-20T06:54:48.679Z,100305.48
2019-03-20T06:55:56.638Z,100306.19
2019-03-20T06:57:04.825Z,100304.30
2019-03-20T06:58:13.193Z,100306.47
2019-03-20T06:59:31.407Z,100300.23
2019-03-20T07:00:52.532Z,100294.87
2019-03-20T07:02:05.359Z,100304.81
2019-03-20T07:03:39.207Z,100301.45
2019-03-20T07:05:17.048Z,100306.08
2019-03-20T07:06:50.903Z,100307.66
2019-03-20T07:07:58.673Z,100312.93
2019-03-20T07:09:22.798Z,100318.47
2019-03-20T07:11:00.764Z,100312.19
2019-03-20T07:12:09.111Z,100315.15
2019-03-20T07:13:17.541Z,100316.58
2019-03-20T07:14:25.544Z,100314.22
2019-03-20T07:15:33.631Z,100319.30
2019-03-20T07:16:41.749Z,100323.06
2019-03-20T07:17:50.008Z,100321.52
2019-03-20T07:18:58.061Z,100324.87
2019-03-20T07:20:10.398Z,100331.73
2019-03-20T07:21:18.850Z,100326.21
2019-03-20T07:22:27.017Z,100335.35
2019-03-20T07:23:35.426Z,100328.11
2019-03-20T07:24:43.488Z,100323.16
2019-03-20T07:25:51.582Z,100330.81
2019-03-20T07:26:59.827Z,100333.70
2019-03-20T07:28:08.205Z,100330.49
2019-03-20T07:29:16.469Z,100325.62
2019-03-20T07:30:24.604Z,100326.88
2019-03-20T07:31:32.825Z,100322.44
2019-03-20T07:32:40.969Z,100324.89
2019-03-20T07:33:49.079Z,100324.29
2019-03-20T07:34:57.415Z,100329.77
2019-03-20T07:36:05.526Z,100329.61
2019-03-20T07:37:14.536Z,100330.88
2019-03-20T07:38:22.501Z,100334.22
2019-03-20T07:39:30.707Z,100332.66
2019-03-20T07:40:38.942Z,100333.77
2019-03-20T07:41:47.133Z,100333.45
2019-03-20T07:42:55.159Z,100331.86
2019-03-20T07:44:03.059Z,100341.73
2019-03-20T07:45:11.970Z,100335.75
2019-03-20T07:46:19.964Z,100333.34
2019-03-20T07:47:28.240Z,100340.12
2019-03-20T07:48:36.482Z,100335.55
2019-03-20T07:49:44.534Z,100332.16
2019-03-20T07:50:52.690Z,100333.70
2019-03-20T07:52:00.778Z,100334.34
2019-03-20T07:53:08.932Z,100330.70
2019-03-20T07:54:16.883Z,100329.28
2019-03-20T07:55:25.156Z,100328.82
2019-03-20T07:56:33.501Z,100332.09
2019-03-20T07:57:41.703Z,100328.00
2019-03-20T07:58:49.783Z,100326.44
2019-03-20T07:59:57.773Z,100330.20
2019-03-20T08:01:06.048Z,100329.63
2019-03-20T08:02:14.795Z,100328.31
2019-03-20T08:03:22.763Z,100333.66
2019-03-20T08:04:30.879Z,100329.97
2019-03-20T08:05:38.786Z,100336.07
2019-03-20T08:06:47.011Z,100336.72
2019-03-20T08:08:06.429Z,100340.12
2019-03-20T08:09:07.272Z,100335.45
2019-03-20T08:10:18.662Z,100338.71
2019-03-20T08:11:26.592Z,100329.64
2019-03-20T08:12:34.546Z,100330.19
2019-03-20T08:13:43.039Z,100325.51
2019-03-20T08:14:50.882Z,100332.41
2019-03-20T08:15:58.943Z,100328.58
2019-03-20T08:17:07.031Z,100327.47
2019-03-20T08:18:15.236Z,100327.61
2019-03-20T08:19:23.428Z,100326.84
2019-03-20T08:20:32.457Z,100328.69
2019-03-20T08:21:40.441Z,100330.94
2019-03-20T08:22:48.441Z,100325.37
2019-03-20T08:23:56.640Z,100323.86
2019-03-20T08:25:06.524Z,100329.75
2019-03-20T08:26:14.625Z,100327.73
2019-03-20T08:27:22.662Z,100332.30
2019-03-20T08:28:30.886Z,100328.52
2019-03-20T08:29:38.911Z,100329.77
2019-03-20T08:30:46.961Z,100329.19
2019-03-20T08:31:55.184Z,100327.04
2019-03-20T08:33:03.480Z,100325.56
2019-03-20T08:34:11.580Z,100323.73
2019-03-20T08:35:19.814Z,100328.48
2019-03-20T08:36:27.955Z,100326.92
2019-03-20T08:37:36.260Z,100324.08
2019-03-20T08:38:44.561Z,100323.25
2019-03-20T08:39:52.861Z,100326.48
2019-03-20T08:41:01.023Z,100331.41
2019-03-20T08:42:09.475Z,100325.91
2019-03-20T08:43:18.073Z,100333.11
2019-03-20T08:44:26.425Z,100330.61
2019-03-20T08:45:34.685Z,100332.74
2019-03-20T08:46:43.080Z,100332.45
2019-03-20T08:47:51.233Z,100333.02
2019-03-20T08:48:59.286Z,100324.44
2019-03-20T08:50:12.134Z,100330.30
2019-03-20T08:51:20.088Z,100333.59
2019-03-20T08:52:28.632Z,100339.46
2019-03-20T08:53:37.308Z,100335.70
2019-03-20T08:54:45.292Z,100336.42
2019-03-20T08:55:53.430Z,100336.56
2019-03-20T08:57:02.325Z,100335.80
2019-03-20T08:58:10.936Z,100335.05
2019-03-20T08:59:18.923Z,100336.94
2019-03-20T09:00:27.366Z,100333.03
2019-03-20T09:01:35.514Z,100337.48
2019-03-20T09:02:43.757Z,100338.49
2019-03-20T09:03:52.011Z,100337.24
2019-03-20T09:05:00.530Z,100338.73
2019-03-20T09:06:08.592Z,100340.92
2019-03-20T09:07:17.010Z,100334.67
2019-03-20T09:08:29.255Z,100337.48
2019-03-20T09:09:34.797Z,100337.61
2019-03-20T09:10:43.252Z,100343.84
2019-03-20T09:11:51.444Z,100339.08
2019-03-20T09:12:59.493Z,100341.03
2019-03-20T09:14:07.538Z,100341.50
2019-03-20T09:15:19.988Z,100341.33
2019-03-20T09:16:27.865Z,100338.14
2019-03-20T09:17:36.191Z,100333.36
2019-03-20T09:18:44.443Z,100336.46
2019-03-20T09:19:52.457Z,100333.92
2019-03-20T09:21:00.782Z,100338.53
2019-03-20T09:22:08.823Z,100333.59
2019-03-20T09:23:17.033Z,100327.75
2019-03-20T09:24:25.233Z,100326.89
2019-03-20T09:25:33.358Z,100328.04
2019-03-20T09:26:41.530Z,100334.21
2019-03-20T09:27:49.730Z,100327.42
2019-03-20T09:28:57.578Z,100327.09
2019-03-20T09:30:09.390Z,100329.13
2019-03-20T09:31:17.798Z,100334.69
2019-03-20T09:32:26.205Z,100334.39
2019-03-20T09:33:34.408Z,100334.98
2019-03-20T09:34:42.418Z,100331.90
2019-03-20T09:35:50.403Z,100341.48
2019-03-20T09:36:58.582Z,100341.44
2019-03-20T09:38:06.983Z,100340.00
2019-03-20T09:39:15.038Z,100338.72
2019-03-20T09:40:24.850Z,100336.09
2019-03-20T09:41:32.859Z,100331.61
2019-03-20T09:42:41.276Z,100332.97
2019-03-20T09:43:49.646Z,100332.34
2019-03-20T09:44:57.908Z,100335.25
2019-03-20T09:46:06.157Z,100342.21
2019-03-20T09:47:14.414Z,100339.85
2019-03-20T09:48:22.721Z,100343.70
2019-03-20T09:49:31.132Z,100340.39
2019-03-20T09:50:39.158Z,100329.20
2019-03-20T09:51:47.419Z,100334.92
2019-03-20T09:52:55.545Z,100329.50
2019-03-20T09:54:03.731Z,100336.27
2019-03-20T09:55:16.801Z,100334.16
2019-03-20T09:56:25.210Z,100337.78
2019-03-20T09:57:33.344Z,100328.77
2019-03-20T09:58:41.547Z,100330.77
2019-03-20T09:59:49.753Z,100326.97
2019-03-20T10:00:58.158Z,100330.48
2019-03-20T10:02:06.218Z,100324.47
2019-03-20T10:03:14.301Z,100332.73
2019-03-20T10:04:22.461Z,100333.16
2019-03-20T10:05:30.861Z,100338.66
2019-03-20T10:06:39.146Z,100339.35
2019-03-20T10:07:47.683Z,100346.95
2019-03-20T10:08:55.862Z,100342.64
2019-03-20T10:10:05.442Z,100340.11
2019-03-20T10:11:13.519Z,100340.10
2019-03-20T10:12:21.679Z,100338.39
2019-03-20T10:13:29.887Z,100340.47
2019-03-20T10:14:38.191Z,100343.98
2019-03-20T10:15:46.268Z,100334.16
2019-03-20T10:16:54.232Z,100339.72
2019-03-20T10:18:02.591Z,100346.47
2019-03-20T10:19:11.208Z,100341.44
2019-03-20T10:20:21.247Z,100336.86
2019-03-20T10:21:29.255Z,100336.30
2019-03-20T10:22:39.008Z,100331.88
2019-03-20T10:23:47.322Z,100337.78
2019-03-20T10:24:55.629Z,100330.70
2019-03-20T10:26:03.762Z,100342.45
2019-03-20T10:27:12.099Z,100338.56
2019-03-20T10:28:20.215Z,100338.37
2019-03-20T10:29:28.224Z,100334.03
2019-03-20T10:30:36.667Z,100339.31
2019-03-20T10:31:45.059Z,100337.66
2019-03-20T10:32:53.270Z,100331.72
2019-03-20T10:34:01.262Z,100329.38
2019-03-20T10:35:10.612Z,100339.95
2019-03-20T10:36:18.811Z,100336.09
2019-03-20T10:37:26.966Z,100336.48
2019-03-20T10:38:35.072Z,100340.50
2019-03-20T10:39:43.360Z,100335.63
2019-03-20T10:40:51.738Z,100330.53
2019-03-20T10:42:01.483Z,100329.06
2019-03-20T10:43:09.732Z,100330.08
2019-03-20T10:44:17.996Z,100328.19
2019-03-20T10:45:25.910Z,100331.86
2019-03-20T10:46:34.101Z,100328.64
2019-03-20T10:47:42.514Z,100336.38
2019-03-20T10:48:50.913Z,100339.27
2019-03-20T10:49:59.128Z,100334.22
2019-03-20T10:51:07.166Z,100330.53
2019-03-20T10:52:15.432Z,100331.91
2019-03-20T10:53:23.528Z,100335.94
2019-03-20T10:54:31.826Z,100326.30
2019-03-20T10:55:40.029Z,100325.19
2019-03-20T10:56:48.215Z,100327.14
2019-03-20T10:57:56.273Z,100330.41
2019-03-20T10:59:04.415Z,100335.09
2019-03-20T11:00:24.594Z,100335.34
2019-03-20T11:01:42.040Z,100335.78
2019-03-20T11:02:42.648Z,100333.80
2019-03-20T11:03:50.831Z,100337.69
2019-03-20T11:04:58.818Z,100332.13
2019-03-20T11:06:06.865Z,100336.35
2019-03-20T11:07:15.126Z,100337.13
2019-03-20T11:08:23.230Z,100338.70
2019-03-20T11:09:31.125Z,100342.52
2019-03-20T11:10:39.595Z,100337.76
2019-03-20T11:11:47.664Z,100341.89
2019-03-20T11:12:56.385Z,100338.94
2019-03-20T11:14:04.614Z,100344.90
2019-03-20T11:15:16.301Z,100341.66
2019-03-20T11:16:24.705Z,100339.76
2019-03-20T11:17:32.813Z,100335.56
2019-03-20T11:18:40.989Z,100333.42
2019-03-20T11:19:49.233Z,100335.87
2019-03-20T11:20:57.369Z,100342.11
2019-03-20T11:22:05.820Z,100334.59
2019-03-20T11:23:13.951Z,100339.98
2019-03-20T11:24:21.859Z,100337.98
2019-03-20T11:25:30.745Z,100338.79
2019-03-20T11:26:38.842Z,100333.50
2019-03-20T11:27:47.088Z,100341.22
2019-03-20T11:28:55.192Z,100336.73
2019-03-20T11:30:03.506Z,100332.52
2019-03-20T11:31:11.599Z,100335.96
2019-03-20T11:32:19.456Z,100331.78
2019-03-20T11:33:27.694Z,100333.83
2019-03-20T11:34:36.099Z,100337.17
2019-03-20T11:35:44.195Z,100332.13
2019-03-20T11:36:52.476Z,100335.14
2019-03-20T11:38:00.514Z,100331.33
2019-03-20T11:39:10.566Z,100336.90
2019-03-20T11:40:24.958Z,100339.20
2019-03-20T11:41:33.107Z,100331.38
2019-03-20T11:42:41.274Z,100333.41
2019-03-20T11:43:49.273Z,100338.02
2019-03-20T11:44:57.489Z,100331.41
2019-03-20T11:46:05.694Z,100336.39
2019-03-20T11:47:14.169Z,100327.89
2019-03-20T11:48:22.309Z,100327.52
2019-03-20T11:49:30.679Z,100320.84
2019-03-20T11:50:44.667Z,100328.30
2019-03-20T11:51:52.905Z,100329.27
2019-03-20T11:53:01.235Z,100332.31
2019-03-20T11:54:09.437Z,100327.89
2019-03-20T11:55:17.719Z,100332.63
2019-03-20T11:56:26.650Z,100320.45
2019-03-20T11:57:34.834Z,100334.02
2019-03-20T11:58:42.930Z,100331.23
2019-03-20T11:59:51.210Z,100332.56
2019-03-20T12:00:59.307Z,100329.16
2019-03-20T12:02:07.826Z,100333.38
2019-03-20T12:03:16.034Z,100324.50
2019-03-20T12:04:24.130Z,100326.63
2019-03-20T12:05:32.326Z,100322.25
2019-03-20T12:06:40.479Z,100320.81
2019-03-20T12:07:48.825Z,100324.02
2019-03-20T12:08:56.821Z,100326.91
2019-03-20T12:10:08.044Z,100318.71
2019-03-20T12:11:16.188Z,100322.69
2019-03-20T12:12:24.304Z,100315.44
2019-03-20T12:13:32.404Z,100315.09
2019-03-20T12:14:40.423Z,100317.63
2019-03-20T12:15:48.702Z,100316.64
2019-03-20T12:16:56.922Z,100307.44
2019-03-20T12:18:05.198Z,100316.64
2019-03-20T12:19:13.485Z,100310.39
2019-03-20T12:20:27.983Z,100308.70
2019-03-20T12:21:36.153Z,100309.48
2019-03-20T12:22:44.726Z,100316.84
2019-03-20T12:23:52.783Z,100312.47
2019-03-20T12:25:00.903Z,100312.48
2019-03-20T12:26:08.940Z,100315.39
2019-03-20T12:27:17.251Z,100318.47
2019-03-20T12:28:25.463Z,100311.14
2019-03-20T12:29:33.844Z,100309.67
2019-03-20T12:30:42.090Z,100312.12
2019-03-20T12:31:50.745Z,100300.61
2019-03-20T12:32:58.900Z,100301.72
2019-03-20T12:34:07.064Z,100302.45
2019-03-20T12:35:18.276Z,100299.17
2019-03-20T12:36:26.568Z,100300.94
2019-03-20T12:37:35.111Z,100303.33
2019-03-20T12:38:43.339Z,100302.70
2019-03-20T12:39:53.368Z,100298.69
2019-03-20T12:41:01.393Z,100302.02
2019-03-20T12:42:09.775Z,100299.03
2019-03-20T12:43:18.262Z,100304.19
2019-03-20T12:44:26.510Z,100303.31
2019-03-20T12:45:36.780Z,100297.13
2019-03-20T12:46:45.127Z,100303.48
2019-03-20T12:47:53.274Z,100304.34
2019-03-20T12:49:01.271Z,100298.98
2019-03-20T12:50:12.979Z,100305.78
2019-03-20T12:51:21.096Z,100308.56
2019-03-20T12:52:29.500Z,100302.67
2019-03-20T12:53:38.008Z,100303.36
2019-03-20T12:54:46.116Z,100306.14
2019-03-20T12:55:54.877Z,100302.61
2019-03-20T12:57:03.333Z,100296.86
2019-03-20T12:58:11.671Z,100303.90
2019-03-20T12:59:20.029Z,100302.05
2019-03-20T13:00:28.943Z,100300.59
2019-03-20T13:01:37.248Z,100301.53
2019-03-20T13:02:45.568Z,100297.84
2019-03-20T13:03:54.177Z,100298.82